MSC Vigo — A8ZV8 — position and weather

sailwx.info

Track history (hours):
 
Tides and Currents Weather Stations Pressure Air Temp Water Temp Dewpoint Dewpoint Depression Visibility Wind Speed Wind Dir Waves Ship Positions

MSC Vigo

Last reported at 2015-Jan-28 05:20 UTC. Time now 2015-Jan-28 06:42 UTC.
Position N 43°25' E 004°50'.

Length 270 m; draft 10 m.

Type: Ship (hazmat cat A). MMSI: 636092276.

Date/timePositionNaut miles runAvg speedWind from/ knotsBaromVisibWave heightAir tempDewpointWater temp
2015-Jan-28 05:20N 43°25' E 004°50'0 0.0
2015-Jan-28 04:32N 43°25' E 004°50'0 0.3
2015-Jan-28 03:33N 43°25' E 004°51'8 8.1
2015-Jan-28 02:33N 43°20' E 004°59'4 3.6
2015-Jan-28 01:33N 43°16' E 005°01'9 9.3
2015-Jan-28 00:33N 43°09' E 005°10'5610.9
2015-Jan-27 19:27N 42°51' E 006°22'1412.5
2015-Jan-27 18:19N 42°58' E 006°39'1013.0
2015-Jan-27 17:33N 43°03' E 006°50'1212.4
2015-Jan-27 16:33N 43°10' E 007°04'1312.6
2015-Jan-27 15:33N 43°17' E 007°19'1414.3
2015-Jan-27 14:32N 43°25' E 007°35'4515.0
2015-Jan-27 11:31N 43°54' E 008°23'1414.7
2015-Jan-27 10:33N 44°06' E 008°34'1413.5
2015-Jan-27 09:33N 44°18' E 008°42'8 7.8
2015-Jan-27 08:34N 44°25' E 008°47'0 0.1
2015-Jan-27 07:29N 44°25' E 008°47'0 0.0
2015-Jan-27 06:23N 44°25' E 008°47'0 0.0
2015-Jan-27 05:32N 44°25' E 008°47'0 0.0
2015-Jan-27 04:32N 44°25' E 008°47'0 0.0
2015-Jan-27 03:29N 44°25' E 008°47'0 0.0
2015-Jan-27 02:32N 44°25' E 008°47'0 0.0
2015-Jan-27 01:32N 44°25' E 008°47'0 0.0
2015-Jan-27 00:32N 44°25' E 008°47'0 0.0
2015-Jan-26 23:32N 44°25' E 008°47'0 0.0
2015-Jan-26 22:32N 44°25' E 008°47'0 0.0
2015-Jan-26 21:32N 44°25' E 008°47'0 0.0
2015-Jan-26 20:26N 44°25' E 008°47'0 0.0
2015-Jan-26 19:32N 44°25' E 008°47'0 0.0
2015-Jan-26 18:26N 44°25' E 008°47'0 0.0
2015-Jan-26 17:23N 44°25' E 008°47'0 0.0
2015-Jan-26 16:32N 44°25' E 008°47'0 0.0
2015-Jan-26 15:29N 44°25' E 008°47'0 0.0
2015-Jan-26 14:32N 44°25' E 008°47'0 0.0
2015-Jan-26 13:32N 44°25' E 008°47'0 0.0
2015-Jan-26 12:32N 44°25' E 008°47'0 0.0
2015-Jan-26 11:32N 44°25' E 008°47'0 0.0
2015-Jan-26 10:32N 44°25' E 008°47'0 0.0
2015-Jan-26 09:32N 44°25' E 008°47'0 0.0
2015-Jan-26 08:32N 44°25' E 008°47'0 0.0
2015-Jan-26 07:17N 44°25' E 008°47'0 0.0
2015-Jan-26 06:32N 44°25' E 008°47'0 0.0
2015-Jan-26 05:29N 44°25' E 008°47'0 0.0
2015-Jan-26 04:29N 44°25' E 008°47'0 0.0
2015-Jan-26 03:32N 44°25' E 008°47'0 0.0
2015-Jan-26 02:32N 44°25' E 008°47'0 0.0
2015-Jan-26 01:32N 44°25' E 008°47'0 0.0
2015-Jan-26 00:32N 44°25' E 008°47'0 0.0
2015-Jan-25 23:32N 44°25' E 008°47'0 0.0
2015-Jan-25 22:32N 44°25' E 008°47'0 0.0
2015-Jan-25 21:32N 44°25' E 008°47'0 0.0
2015-Jan-25 20:32N 44°25' E 008°47'0 0.0
2015-Jan-25 19:32N 44°25' E 008°47'2 2.5
2015-Jan-25 18:33N 44°24' E 008°44'10 9.8
2015-Jan-25 17:33N 44°16' E 008°51'1312.9
2015-Jan-25 16:33N 44°07' E 009°04'1515.4
2015-Jan-25 15:33N 43°57' E 009°20'1615.6
2015-Jan-25 14:33N 43°47' E 009°37'1615.5
2015-Jan-25 13:33N 43°36' E 009°52'1414.3
2015-Jan-25 12:33N 43°30' E 010°10'7 7.5
2015-Jan-25 11:33N 43°35' E 010°18'0 0.1
2015-Jan-25 10:31N 43°35' E 010°18'0 0.0
2015-Jan-25 09:31N 43°35' E 010°18'0 0.0
2015-Jan-25 08:31N 43°35' E 010°18'0 0.0
2015-Jan-25 07:31N 43°35' E 010°18'0 0.0
2015-Jan-25 06:31N 43°35' E 010°18'0 0.0
2015-Jan-25 05:31N 43°35' E 010°18'0 0.0
2015-Jan-25 04:31N 43°35' E 010°18'0 0.0
2015-Jan-25 03:31N 43°35' E 010°18'0 0.0
2015-Jan-25 02:31N 43°35' E 010°18'0 0.0
2015-Jan-25 01:31N 43°35' E 010°18'0 0.0
2015-Jan-25 00:31N 43°35' E 010°18'0 0.0
2015-Jan-24 23:31N 43°35' E 010°18'0 0.0
2015-Jan-24 22:31N 43°35' E 010°18'0 0.0
2015-Jan-24 21:31N 43°35' E 010°18'0 0.0
2015-Jan-24 20:31N 43°35' E 010°18'0 0.0
2015-Jan-24 19:31N 43°35' E 010°18'0 0.0
2015-Jan-24 18:31N 43°35' E 010°18'0 0.0
2015-Jan-24 17:31N 43°35' E 010°18'0 0.0
2015-Jan-24 16:31N 43°35' E 010°18'0 0.0
2015-Jan-24 15:31N 43°35' E 010°18'0 0.0
2015-Jan-24 14:31N 43°35' E 010°18'0 0.0
2015-Jan-24 13:31N 43°35' E 010°18'0 0.0
2015-Jan-24 12:31N 43°35' E 010°18'0 0.0
2015-Jan-24 11:31N 43°35' E 010°18'0 0.0
2015-Jan-24 10:31N 43°35' E 010°18'0 0.0
2015-Jan-24 09:31N 43°35' E 010°18'0 0.5
2015-Jan-24 08:33N 43°34' E 010°18'4 3.7
2015-Jan-24 07:33N 43°31' E 010°16'1 0.8
2015-Jan-24 06:31N 43°30' E 010°16'0 0.1
2015-Jan-24 05:31N 43°30' E 010°16'0 0.0
2015-Jan-24 04:31N 43°30' E 010°16'0 0.0
2015-Jan-24 03:31N 43°30' E 010°16'0 0.0
2015-Jan-24 02:31N 43°30' E 010°16'0 0.0
2015-Jan-24 01:31N 43°30' E 010°16'0 0.0
2015-Jan-24 00:31N 43°30' E 010°16'0 0.1
2015-Jan-23 23:31N 43°30' E 010°16'0 0.0
2015-Jan-23 22:31N 43°30' E 010°16'0 0.0
2015-Jan-23 21:28N 43°30' E 010°16'0 0.0
2015-Jan-23 20:31N 43°30' E 010°16'0 0.0
2015-Jan-23 19:31N 43°30' E 010°16'0 0.0
2015-Jan-23 18:31N 43°30' E 010°16'0 0.1
2015-Jan-23 17:25N 43°30' E 010°16'0 0.0
2015-Jan-23 16:31N 43°30' E 010°16'0 0.0
2015-Jan-23 15:31N 43°30' E 010°16'0 0.2
2015-Jan-23 14:31N 43°30' E 010°16'0 0.0
2015-Jan-23 13:31N 43°30' E 010°16'0 0.1
2015-Jan-23 12:31N 43°30' E 010°16'0 0.1
2015-Jan-23 11:31N 43°30' E 010°16'2 1.7
2015-Jan-23 10:33N 43°29' E 010°15'1111.0
2015-Jan-23 09:33N 43°19' E 010°07'1111.2
2015-Jan-23 08:33N 43°08' E 010°05'1111.1
2015-Jan-23 07:32N 42°57' E 010°03'23 9.8
2015-Jan-23 05:09N 42°35' E 010°14'2210.3
2015-Jan-23 03:03N 42°20' E 010°35'15711.5
2015-Jan-22 13:26N 40°31' E 013°06'6013.4
2015-Jan-22 09:00N 39°48' E 014°00'105 2.7 150 / 151011.010.8 0.515.511.217.0
2015-Jan-20 18:33N 38°22' E 015°19'1514.9
2015-Jan-20 17:33N 38°20' E 015°01'5616.7
2015-Jan-20 14:12N 38°22' E 013°49'914.2
2015-Jan-20 13:34N 38°23' E 013°38'1414.1
2015-Jan-20 12:33N 38°24' E 013°20'1414.2
2015-Jan-20 11:33N 38°24' E 013°02'1414.0
2015-Jan-20 10:33N 38°25' E 012°44'1413.9
2015-Jan-20 09:30N 38°26' E 012°25'14514.4
2015-Jan-19 23:25N 38°37' E 009°20'1214.4
2015-Jan-19 22:34N 38°38' E 009°04'1414.3
2015-Jan-19 21:33N 38°39' E 008°46'1714.4
2015-Jan-19 20:23N 38°40' E 008°24'16914.8
2015-Jan-19 09:00N 38°48' E 004°48'4215.9 140 / 201008.010.8 1.014.0 7.516.0
2015-Jan-19 06:22N 38°55' E 003°55'1214.6
2015-Jan-19 05:34N 38°56' E 003°40'1515.0
2015-Jan-19 04:33N 38°57' E 003°21'1515.3
2015-Jan-19 03:33N 38°58' E 003°01'1414.3
2015-Jan-19 02:33N 39°01' E 002°43'1514.6
2015-Jan-19 01:33N 39°05' E 002°25'1514.9
2015-Jan-19 00:33N 39°09' E 002°07'1515.1
2015-Jan-18 23:34N 39°14' E 001°48'1515.5
2015-Jan-18 22:34N 39°17' E 001°29'1615.7
2015-Jan-18 21:33N 39°19' E 001°08'6215.5
2015-Jan-18 17:33N 39°25' W 000°11'6 6.2
2015-Jan-18 16:33N 39°26' W 000°19'0 0.0
2015-Jan-18 15:30N 39°26' W 000°19'0 0.0
2015-Jan-18 14:30N 39°26' W 000°19'0 0.0
2015-Jan-18 13:33N 39°26' W 000°19'0 0.0
2015-Jan-18 12:33N 39°26' W 000°19'0 0.0
2015-Jan-18 11:33N 39°26' W 000°19'0 0.0
2015-Jan-18 10:30N 39°26' W 000°19'0 0.0
2015-Jan-18 09:33N 39°26' W 000°19'0 0.0
2015-Jan-18 08:33N 39°26' W 000°19'0 0.0
2015-Jan-18 07:33N 39°26' W 000°19'0 0.0
2015-Jan-18 06:27N 39°26' W 000°19'0 0.1
2015-Jan-18 05:33N 39°26' W 000°19'  
Track history (hours):
 
Tides and Currents Weather Stations Pressure Air Temp Water Temp Dewpoint Dewpoint Depression Visibility Wind Speed Wind Dir Waves Ship Positions

MSC Vigo

Last reported at 2015-Jan-28 05:20 UTC. Time now 2015-Jan-28 06:42 UTC.
Position N 43°25' E 004°50'.

Length 270 m; draft 10 m.

Type: Ship (hazmat cat A). MMSI: 636092276.

Date/timePositionNaut miles runAvg speedWind from/ knotsBaromVisibWave heightAir tempDewpointWater temp
2015-Jan-28 05:20N 43°25' E 004°50'0 0.0
2015-Jan-28 04:32N 43°25' E 004°50'0 0.3
2015-Jan-28 03:33N 43°25' E 004°51'8 8.1
2015-Jan-28 02:33N 43°20' E 004°59'4 3.6
2015-Jan-28 01:33N 43°16' E 005°01'9 9.3
2015-Jan-28 00:33N 43°09' E 005°10'5610.9
2015-Jan-27 19:27N 42°51' E 006°22'1412.5
2015-Jan-27 18:19N 42°58' E 006°39'1013.0
2015-Jan-27 17:33N 43°03' E 006°50'1212.4
2015-Jan-27 16:33N 43°10' E 007°04'1312.6
2015-Jan-27 15:33N 43°17' E 007°19'1414.3
2015-Jan-27 14:32N 43°25' E 007°35'4515.0
2015-Jan-27 11:31N 43°54' E 008°23'1414.7
2015-Jan-27 10:33N 44°06' E 008°34'1413.5
2015-Jan-27 09:33N 44°18' E 008°42'8 7.8
2015-Jan-27 08:34N 44°25' E 008°47'0 0.1
2015-Jan-27 07:29N 44°25' E 008°47'0 0.0
2015-Jan-27 06:23N 44°25' E 008°47'0 0.0
2015-Jan-27 05:32N 44°25' E 008°47'0 0.0
2015-Jan-27 04:32N 44°25' E 008°47'0 0.0
2015-Jan-27 03:29N 44°25' E 008°47'0 0.0
2015-Jan-27 02:32N 44°25' E 008°47'0 0.0
2015-Jan-27 01:32N 44°25' E 008°47'0 0.0
2015-Jan-27 00:32N 44°25' E 008°47'0 0.0
2015-Jan-26 23:32N 44°25' E 008°47'0 0.0
2015-Jan-26 22:32N 44°25' E 008°47'0 0.0
2015-Jan-26 21:32N 44°25' E 008°47'0 0.0
2015-Jan-26 20:26N 44°25' E 008°47'0 0.0
2015-Jan-26 19:32N 44°25' E 008°47'0 0.0
2015-Jan-26 18:26N 44°25' E 008°47'0 0.0
2015-Jan-26 17:23N 44°25' E 008°47'0 0.0
2015-Jan-26 16:32N 44°25' E 008°47'0 0.0
2015-Jan-26 15:29N 44°25' E 008°47'0 0.0
2015-Jan-26 14:32N 44°25' E 008°47'0 0.0
2015-Jan-26 13:32N 44°25' E 008°47'0 0.0
2015-Jan-26 12:32N 44°25' E 008°47'0 0.0
2015-Jan-26 11:32N 44°25' E 008°47'0 0.0
2015-Jan-26 10:32N 44°25' E 008°47'0 0.0
2015-Jan-26 09:32N 44°25' E 008°47'0 0.0
2015-Jan-26 08:32N 44°25' E 008°47'0 0.0
2015-Jan-26 07:17N 44°25' E 008°47'0 0.0
2015-Jan-26 06:32N 44°25' E 008°47'0 0.0
2015-Jan-26 05:29N 44°25' E 008°47'0 0.0
2015-Jan-26 04:29N 44°25' E 008°47'0 0.0
2015-Jan-26 03:32N 44°25' E 008°47'0 0.0
2015-Jan-26 02:32N 44°25' E 008°47'0 0.0
2015-Jan-26 01:32N 44°25' E 008°47'0 0.0
2015-Jan-26 00:32N 44°25' E 008°47'0 0.0
2015-Jan-25 23:32N 44°25' E 008°47'0 0.0
2015-Jan-25 22:32N 44°25' E 008°47'0 0.0
2015-Jan-25 21:32N 44°25' E 008°47'0 0.0
2015-Jan-25 20:32N 44°25' E 008°47'0 0.0
2015-Jan-25 19:32N 44°25' E 008°47'2 2.5
2015-Jan-25 18:33N 44°24' E 008°44'10 9.8
2015-Jan-25 17:33N 44°16' E 008°51'1312.9
2015-Jan-25 16:33N 44°07' E 009°04'1515.4
2015-Jan-25 15:33N 43°57' E 009°20'1615.6
2015-Jan-25 14:33N 43°47' E 009°37'1615.5
2015-Jan-25 13:33N 43°36' E 009°52'1414.3
2015-Jan-25 12:33N 43°30' E 010°10'7 7.5
2015-Jan-25 11:33N 43°35' E 010°18'0 0.1
2015-Jan-25 10:31N 43°35' E 010°18'0 0.0
2015-Jan-25 09:31N 43°35' E 010°18'0 0.0
2015-Jan-25 08:31N 43°35' E 010°18'0 0.0
2015-Jan-25 07:31N 43°35' E 010°18'0 0.0
2015-Jan-25 06:31N 43°35' E 010°18'0 0.0
2015-Jan-25 05:31N 43°35' E 010°18'0 0.0
2015-Jan-25 04:31N 43°35' E 010°18'0 0.0
2015-Jan-25 03:31N 43°35' E 010°18'0 0.0
2015-Jan-25 02:31N 43°35' E 010°18'0 0.0
2015-Jan-25 01:31N 43°35' E 010°18'0 0.0
2015-Jan-25 00:31N 43°35' E 010°18'0 0.0
2015-Jan-24 23:31N 43°35' E 010°18'0 0.0
2015-Jan-24 22:31N 43°35' E 010°18'0 0.0
2015-Jan-24 21:31N 43°35' E 010°18'0 0.0
2015-Jan-24 20:31N 43°35' E 010°18'0 0.0
2015-Jan-24 19:31N 43°35' E 010°18'0 0.0
2015-Jan-24 18:31N 43°35' E 010°18'0 0.0
2015-Jan-24 17:31N 43°35' E 010°18'0 0.0
2015-Jan-24 16:31N 43°35' E 010°18'0 0.0
2015-Jan-24 15:31N 43°35' E 010°18'0 0.0
2015-Jan-24 14:31N 43°35' E 010°18'0 0.0
2015-Jan-24 13:31N 43°35' E 010°18'0 0.0
2015-Jan-24 12:31N 43°35' E 010°18'0 0.0
2015-Jan-24 11:31N 43°35' E 010°18'0 0.0
2015-Jan-24 10:31N 43°35' E 010°18'0 0.0
2015-Jan-24 09:31N 43°35' E 010°18'0 0.5
2015-Jan-24 08:33N 43°34' E 010°18'4 3.7
2015-Jan-24 07:33N 43°31' E 010°16'1 0.8
2015-Jan-24 06:31N 43°30' E 010°16'0 0.1
2015-Jan-24 05:31N 43°30' E 010°16'0 0.0
2015-Jan-24 04:31N 43°30' E 010°16'0 0.0
2015-Jan-24 03:31N 43°30' E 010°16'0 0.0
2015-Jan-24 02:31N 43°30' E 010°16'0 0.0
2015-Jan-24 01:31N 43°30' E 010°16'0 0.0
2015-Jan-24 00:31N 43°30' E 010°16'0 0.1
2015-Jan-23 23:31N 43°30' E 010°16'0 0.0
2015-Jan-23 22:31N 43°30' E 010°16'0 0.0
2015-Jan-23 21:28N 43°30' E 010°16'0 0.0
2015-Jan-23 20:31N 43°30' E 010°16'0 0.0
2015-Jan-23 19:31N 43°30' E 010°16'0 0.0
2015-Jan-23 18:31N 43°30' E 010°16'0 0.1
2015-Jan-23 17:25N 43°30' E 010°16'0 0.0
2015-Jan-23 16:31N 43°30' E 010°16'0 0.0
2015-Jan-23 15:31N 43°30' E 010°16'0 0.2
2015-Jan-23 14:31N 43°30' E 010°16'0 0.0
2015-Jan-23 13:31N 43°30' E 010°16'0 0.1
2015-Jan-23 12:31N 43°30' E 010°16'0 0.1
2015-Jan-23 11:31N 43°30' E 010°16'2 1.7
2015-Jan-23 10:33N 43°29' E 010°15'1111.0
2015-Jan-23 09:33N 43°19' E 010°07'1111.2
2015-Jan-23 08:33N 43°08' E 010°05'1111.1
2015-Jan-23 07:32N 42°57' E 010°03'23 9.8
2015-Jan-23 05:09N 42°35' E 010°14'2210.3
2015-Jan-23 03:03N 42°20' E 010°35'15711.5
2015-Jan-22 13:26N 40°31' E 013°06'6013.4
2015-Jan-22 09:00N 39°48' E 014°00'105 2.7 150 / 151011.010.8 0.515.511.217.0
2015-Jan-20 18:33N 38°22' E 015°19'1514.9
2015-Jan-20 17:33N 38°20' E 015°01'5616.7
2015-Jan-20 14:12N 38°22' E 013°49'914.2
2015-Jan-20 13:34N 38°23' E 013°38'1414.1
2015-Jan-20 12:33N 38°24' E 013°20'1414.2
2015-Jan-20 11:33N 38°24' E 013°02'1414.0
2015-Jan-20 10:33N 38°25' E 012°44'1413.9
2015-Jan-20 09:30N 38°26' E 012°25'14514.4
2015-Jan-19 23:25N 38°37' E 009°20'1214.4
2015-Jan-19 22:34N 38°38' E 009°04'1414.3
2015-Jan-19 21:33N 38°39' E 008°46'1714.4
2015-Jan-19 20:23N 38°40' E 008°24'16914.8
2015-Jan-19 09:00N 38°48' E 004°48'4215.9 140 / 201008.010.8 1.014.0 7.516.0
2015-Jan-19 06:22N 38°55' E 003°55'1214.6
2015-Jan-19 05:34N 38°56' E 003°40'1515.0
2015-Jan-19 04:33N 38°57' E 003°21'1515.3
2015-Jan-19 03:33N 38°58' E 003°01'1414.3
2015-Jan-19 02:33N 39°01' E 002°43'1514.6
2015-Jan-19 01:33N 39°05' E 002°25'1514.9
2015-Jan-19 00:33N 39°09' E 002°07'1515.1
2015-Jan-18 23:34N 39°14' E 001°48'1515.5
2015-Jan-18 22:34N 39°17' E 001°29'1615.7
2015-Jan-18 21:33N 39°19' E 001°08'6215.5
2015-Jan-18 17:33N 39°25' W 000°11'6 6.2
2015-Jan-18 16:33N 39°26' W 000°19'0 0.0
2015-Jan-18 15:30N 39°26' W 000°19'0 0.0
2015-Jan-18 14:30N 39°26' W 000°19'0 0.0
2015-Jan-18 13:33N 39°26' W 000°19'0 0.0
2015-Jan-18 12:33N 39°26' W 000°19'0 0.0
2015-Jan-18 11:33N 39°26' W 000°19'0 0.0
2015-Jan-18 10:30N 39°26' W 000°19'0 0.0
2015-Jan-18 09:33N 39°26' W 000°19'0 0.0
2015-Jan-18 08:33N 39°26' W 000°19'0 0.0
2015-Jan-18 07:33N 39°26' W 000°19'0 0.0
2015-Jan-18 06:27N 39°26' W 000°19'0 0.1
2015-Jan-18 05:33N 39°26' W 000°19'  

Dump ship's entire track history